sensor_id;sensor_type;location;lat;lon;timestamp;P1;durP1;ratioP1;P2;durP2;ratioP2
3819;SDS011;1925;51.356;9.530;2023-04-19T00:01:04;8.33;;;6.00;;
3819;SDS011;1925;51.356;9.530;2023-04-19T00:03:30;8.90;;;6.65;;
3819;SDS011;1925;51.356;9.530;2023-04-19T00:05:56;6.90;;;5.60;;
3819;SDS011;1925;51.356;9.530;2023-04-19T00:08:23;7.00;;;6.30;;
3819;SDS011;1925;51.356;9.530;2023-04-19T00:10:50;5.40;;;4.72;;
3819;SDS011;1925;51.356;9.530;2023-04-19T00:13:16;6.20;;;5.10;;
3819;SDS011;1925;51.356;9.530;2023-04-19T00:15:41;5.47;;;4.93;;
3819;SDS011;1925;51.356;9.530;2023-04-19T00:18:07;8.33;;;5.40;;
3819;SDS011;1925;51.356;9.530;2023-04-19T00:20:33;6.40;;;4.80;;
3819;SDS011;1925;51.356;9.530;2023-04-19T00:23:00;7.00;;;5.30;;
3819;SDS011;1925;51.356;9.530;2023-04-19T00:25:26;11.10;;;5.65;;
3819;SDS011;1925;51.356;9.530;2023-04-19T00:27:53;3.95;;;3.55;;
3819;SDS011;1925;51.356;9.530;2023-04-19T00:30:19;4.63;;;3.88;;
3819;SDS011;1925;51.356;9.530;2023-04-19T00:32:45;5.32;;;4.45;;
3819;SDS011;1925;51.356;9.530;2023-04-19T00:35:11;5.10;;;4.23;;
3819;SDS011;1925;51.356;9.530;2023-04-19T00:37:37;6.00;;;4.30;;
3819;SDS011;1925;51.356;9.530;2023-04-19T00:40:03;6.80;;;4.00;;
3819;SDS011;1925;51.356;9.530;2023-04-19T00:42:30;5.20;;;4.00;;
3819;SDS011;1925;51.356;9.530;2023-04-19T00:44:56;3.83;;;3.43;;
3819;SDS011;1925;51.356;9.530;2023-04-19T00:47:21;4.33;;;3.70;;
3819;SDS011;1925;51.356;9.530;2023-04-19T00:49:47;4.17;;;3.70;;
3819;SDS011;1925;51.356;9.530;2023-04-19T00:52:13;3.97;;;3.63;;
3819;SDS011;1925;51.356;9.530;2023-04-19T00:54:39;4.77;;;3.47;;
3819;SDS011;1925;51.356;9.530;2023-04-19T00:57:08;6.28;;;5.00;;
3819;SDS011;1925;51.356;9.530;2023-04-19T00:59:34;4.37;;;3.93;;
3819;SDS011;1925;51.356;9.530;2023-04-19T01:01:59;4.73;;;4.20;;
3819;SDS011;1925;51.356;9.530;2023-04-19T01:04:25;4.13;;;3.53;;
3819;SDS011;1925;51.356;9.530;2023-04-19T01:06:51;4.40;;;3.50;;
3819;SDS011;1925;51.356;9.530;2023-04-19T01:09:18;4.50;;;3.38;;
3819;SDS011;1925;51.356;9.530;2023-04-19T01:11:44;5.20;;;3.60;;
3819;SDS011;1925;51.356;9.530;2023-04-19T01:14:10;3.88;;;3.58;;
3819;SDS011;1925;51.356;9.530;2023-04-19T01:16:36;4.10;;;3.30;;
3819;SDS011;1925;51.356;9.530;2023-04-19T01:19:03;3.35;;;3.05;;
3819;SDS011;1925;51.356;9.530;2023-04-19T01:21:29;3.85;;;3.50;;
3819;SDS011;1925;51.356;9.530;2023-04-19T01:23:56;3.63;;;2.97;;
3819;SDS011;1925;51.356;9.530;2023-04-19T01:26:22;4.00;;;3.20;;
3819;SDS011;1925;51.356;9.530;2023-04-19T01:28:48;4.00;;;2.90;;
3819;SDS011;1925;51.356;9.530;2023-04-19T01:31:14;3.60;;;3.20;;
3819;SDS011;1925;51.356;9.530;2023-04-19T01:33:40;3.70;;;3.37;;
3819;SDS011;1925;51.356;9.530;2023-04-19T01:36:06;3.50;;;3.17;;
3819;SDS011;1925;51.356;9.530;2023-04-19T01:38:32;3.33;;;3.00;;
3819;SDS011;1925;51.356;9.530;2023-04-19T01:40:59;7.55;;;3.80;;
3819;SDS011;1925;51.356;9.530;2023-04-19T01:43:25;5.93;;;3.50;;
3819;SDS011;1925;51.356;9.530;2023-04-19T01:45:51;3.70;;;3.20;;
3819;SDS011;1925;51.356;9.530;2023-04-19T01:48:16;6.73;;;3.60;;
3819;SDS011;1925;51.356;9.530;2023-04-19T01:50:42;4.67;;;2.83;;
3819;SDS011;1925;51.356;9.530;2023-04-19T01:53:08;3.10;;;2.80;;
3819;SDS011;1925;51.356;9.530;2023-04-19T01:55:34;4.97;;;3.40;;
3819;SDS011;1925;51.356;9.530;2023-04-19T01:58:00;5.93;;;3.70;;
3819;SDS011;1925;51.356;9.530;2023-04-19T02:00:26;3.90;;;3.60;;
3819;SDS011;1925;51.356;9.530;2023-04-19T02:02:52;3.37;;;3.07;;
3819;SDS011;1925;51.356;9.530;2023-04-19T02:05:18;3.23;;;2.93;;
3819;SDS011;1925;51.356;9.530;2023-04-19T02:07:45;4.28;;;3.60;;
3819;SDS011;1925;51.356;9.530;2023-04-19T02:10:11;3.43;;;3.10;;
3819;SDS011;1925;51.356;9.530;2023-04-19T02:12:37;4.75;;;3.40;;
3819;SDS011;1925;51.356;9.530;2023-04-19T02:15:03;5.10;;;3.63;;
3819;SDS011;1925;51.356;9.530;2023-04-19T02:17:29;3.47;;;3.17;;
3819;SDS011;1925;51.356;9.530;2023-04-19T02:19:55;4.10;;;3.65;;
3819;SDS011;1925;51.356;9.530;2023-04-19T02:22:21;4.93;;;3.63;;
3819;SDS011;1925;51.356;9.530;2023-04-19T02:24:50;4.90;;;3.50;;
3819;SDS011;1925;51.356;9.530;2023-04-19T02:27:16;3.95;;;3.60;;
3819;SDS011;1925;51.356;9.530;2023-04-19T02:29:42;5.28;;;4.47;;
3819;SDS011;1925;51.356;9.530;2023-04-19T02:32:10;4.22;;;3.63;;
3819;SDS011;1925;51.356;9.530;2023-04-19T02:34:36;4.18;;;3.53;;
3819;SDS011;1925;51.356;9.530;2023-04-19T02:37:03;4.25;;;3.30;;
3819;SDS011;1925;51.356;9.530;2023-04-19T02:39:29;4.37;;;3.30;;
3819;SDS011;1925;51.356;9.530;2023-04-19T02:41:55;3.88;;;3.28;;
3819;SDS011;1925;51.356;9.530;2023-04-19T02:44:21;4.50;;;3.70;;
3819;SDS011;1925;51.356;9.530;2023-04-19T02:46:50;6.40;;;4.17;;
3819;SDS011;1925;51.356;9.530;2023-04-19T02:49:16;4.45;;;4.00;;
3819;SDS011;1925;51.356;9.530;2023-04-19T02:51:42;4.13;;;3.65;;
3819;SDS011;1925;51.356;9.530;2023-04-19T02:54:08;7.80;;;4.67;;
3819;SDS011;1925;51.356;9.530;2023-04-19T02:56:34;5.00;;;3.70;;
3819;SDS011;1925;51.356;9.530;2023-04-19T02:59:00;4.37;;;3.60;;
3819;SDS011;1925;51.356;9.530;2023-04-19T03:01:26;4.70;;;4.18;;
3819;SDS011;1925;51.356;9.530;2023-04-19T03:03:52;4.73;;;3.60;;
3819;SDS011;1925;51.356;9.530;2023-04-19T03:06:18;6.87;;;3.80;;
3819;SDS011;1925;51.356;9.530;2023-04-19T03:08:44;6.10;;;4.25;;
3819;SDS011;1925;51.356;9.530;2023-04-19T03:11:11;6.88;;;3.90;;
3819;SDS011;1925;51.356;9.530;2023-04-19T03:13:37;4.95;;;4.13;;
3819;SDS011;1925;51.356;9.530;2023-04-19T03:16:04;4.70;;;4.22;;
3819;SDS011;1925;51.356;9.530;2023-04-19T03:18:30;4.47;;;4.07;;
3819;SDS011;1925;51.356;9.530;2023-04-19T03:20:56;5.33;;;4.83;;
3819;SDS011;1925;51.356;9.530;2023-04-19T03:23:22;5.38;;;4.53;;
3819;SDS011;1925;51.356;9.530;2023-04-19T03:25:48;5.00;;;4.50;;
3819;SDS011;1925;51.356;9.530;2023-04-19T03:28:15;6.70;;;4.70;;
3819;SDS011;1925;51.356;9.530;2023-04-19T03:30:41;4.57;;;4.17;;
3819;SDS011;1925;51.356;9.530;2023-04-19T03:33:06;5.90;;;3.83;;
3819;SDS011;1925;51.356;9.530;2023-04-19T03:35:32;6.67;;;4.70;;
3819;SDS011;1925;51.356;9.530;2023-04-19T03:37:58;5.00;;;3.90;;
3819;SDS011;1925;51.356;9.530;2023-04-19T03:40:24;8.07;;;4.83;;
3819;SDS011;1925;51.356;9.530;2023-04-19T03:42:50;4.43;;;4.00;;
3819;SDS011;1925;51.356;9.530;2023-04-19T03:45:16;5.70;;;4.30;;
3819;SDS011;1925;51.356;9.530;2023-04-19T03:47:42;4.95;;;4.03;;
3819;SDS011;1925;51.356;9.530;2023-04-19T03:50:08;5.33;;;3.93;;
3819;SDS011;1925;51.356;9.530;2023-04-19T03:52:34;5.05;;;4.55;;
3819;SDS011;1925;51.356;9.530;2023-04-19T03:55:00;5.32;;;4.75;;
3819;SDS011;1925;51.356;9.530;2023-04-19T03:57:26;4.80;;;4.40;;
3819;SDS011;1925;51.356;9.530;2023-04-19T03:59:52;4.60;;;4.03;;
3819;SDS011;1925;51.356;9.530;2023-04-19T04:02:18;5.13;;;4.27;;
3819;SDS011;1925;51.356;9.530;2023-04-19T04:04:44;7.23;;;4.27;;
3819;SDS011;1925;51.356;9.530;2023-04-19T04:07:10;5.83;;;4.57;;
3819;SDS011;1925;51.356;9.530;2023-04-19T04:09:36;4.60;;;3.40;;
3819;SDS011;1925;51.356;9.530;2023-04-19T04:12:02;6.70;;;4.47;;
3819;SDS011;1925;51.356;9.530;2023-04-19T04:14:28;4.88;;;4.35;;
3819;SDS011;1925;51.356;9.530;2023-04-19T04:16:54;5.38;;;3.97;;
3819;SDS011;1925;51.356;9.530;2023-04-19T04:19:20;4.03;;;3.70;;
3819;SDS011;1925;51.356;9.530;2023-04-19T04:21:46;6.30;;;4.33;;
3819;SDS011;1925;51.356;9.530;2023-04-19T04:24:13;6.90;;;4.78;;
3819;SDS011;1925;51.356;9.530;2023-04-19T04:26:39;7.10;;;4.85;;
3819;SDS011;1925;51.356;9.530;2023-04-19T04:29:06;4.38;;;3.75;;
3819;SDS011;1925;51.356;9.530;2023-04-19T04:31:32;4.53;;;3.25;;
3819;SDS011;1925;51.356;9.530;2023-04-19T04:34:00;4.55;;;3.63;;
3819;SDS011;1925;51.356;9.530;2023-04-19T04:36:25;5.40;;;4.40;;
3819;SDS011;1925;51.356;9.530;2023-04-19T04:38:53;6.90;;;3.47;;
3819;SDS011;1925;51.356;9.530;2023-04-19T04:41:21;4.75;;;3.85;;
3819;SDS011;1925;51.356;9.530;2023-04-19T04:43:46;4.47;;;3.50;;
3819;SDS011;1925;51.356;9.530;2023-04-19T04:46:15;8.55;;;3.85;;
3819;SDS011;1925;51.356;9.530;2023-04-19T04:48:41;5.55;;;4.15;;
3819;SDS011;1925;51.356;9.530;2023-04-19T04:51:07;4.50;;;3.50;;
3819;SDS011;1925;51.356;9.530;2023-04-19T04:53:33;4.87;;;3.70;;
3819;SDS011;1925;51.356;9.530;2023-04-19T04:55:59;7.03;;;3.87;;
3819;SDS011;1925;51.356;9.530;2023-04-19T04:58:25;6.82;;;4.18;;
3819;SDS011;1925;51.356;9.530;2023-04-19T05:00:51;8.73;;;3.97;;
3819;SDS011;1925;51.356;9.530;2023-04-19T05:03:17;4.70;;;3.50;;
3819;SDS011;1925;51.356;9.530;2023-04-19T05:05:43;4.80;;;3.60;;
3819;SDS011;1925;51.356;9.530;2023-04-19T05:08:09;5.20;;;3.73;;
3819;SDS011;1925;51.356;9.530;2023-04-19T05:10:35;6.70;;;4.33;;
3819;SDS011;1925;51.356;9.530;2023-04-19T05:13:01;5.10;;;3.83;;
3819;SDS011;1925;51.356;9.530;2023-04-19T05:15:27;5.30;;;4.20;;
3819;SDS011;1925;51.356;9.530;2023-04-19T05:17:53;5.80;;;4.20;;
3819;SDS011;1925;51.356;9.530;2023-04-19T05:20:19;3.83;;;3.37;;
3819;SDS011;1925;51.356;9.530;2023-04-19T05:22:45;5.38;;;3.72;;
3819;SDS011;1925;51.356;9.530;2023-04-19T05:25:11;7.80;;;3.10;;
3819;SDS011;1925;51.356;9.530;2023-04-19T05:27:37;6.87;;;3.70;;
3819;SDS011;1925;51.356;9.530;2023-04-19T05:30:03;5.43;;;3.60;;
3819;SDS011;1925;51.356;9.530;2023-04-19T05:32:30;4.32;;;3.17;;
3819;SDS011;1925;51.356;9.530;2023-04-19T05:34:56;5.72;;;3.67;;
3819;SDS011;1925;51.356;9.530;2023-04-19T05:37:22;5.47;;;3.80;;
3819;SDS011;1925;51.356;9.530;2023-04-19T05:39:51;6.80;;;3.72;;
3819;SDS011;1925;51.356;9.530;2023-04-19T05:42:16;7.73;;;3.17;;
3819;SDS011;1925;51.356;9.530;2023-04-19T05:44:42;5.33;;;3.00;;
3819;SDS011;1925;51.356;9.530;2023-04-19T05:47:08;5.57;;;3.43;;
3819;SDS011;1925;51.356;9.530;2023-04-19T05:49:34;3.90;;;3.40;;
3819;SDS011;1925;51.356;9.530;2023-04-19T05:52:00;5.60;;;3.43;;
3819;SDS011;1925;51.356;9.530;2023-04-19T05:54:26;5.10;;;3.23;;
3819;SDS011;1925;51.356;9.530;2023-04-19T05:56:52;4.17;;;3.10;;
3819;SDS011;1925;51.356;9.530;2023-04-19T05:59:18;9.57;;;3.90;;
3819;SDS011;1925;51.356;9.530;2023-04-19T06:01:44;4.65;;;3.08;;
3819;SDS011;1925;51.356;9.530;2023-04-19T06:04:10;5.53;;;3.17;;
3819;SDS011;1925;51.356;9.530;2023-04-19T06:06:36;3.67;;;3.13;;
3819;SDS011;1925;51.356;9.530;2023-04-19T06:09:02;3.80;;;2.63;;
3819;SDS011;1925;51.356;9.530;2023-04-19T06:11:28;3.73;;;2.47;;
3819;SDS011;1925;51.356;9.530;2023-04-19T06:13:54;3.70;;;2.83;;
3819;SDS011;1925;51.356;9.530;2023-04-19T06:16:20;3.90;;;2.50;;
3819;SDS011;1925;51.356;9.530;2023-04-19T06:18:46;3.30;;;2.47;;
3819;SDS011;1925;51.356;9.530;2023-04-19T06:21:12;3.83;;;2.37;;
3819;SDS011;1925;51.356;9.530;2023-04-19T06:23:38;6.90;;;2.97;;
3819;SDS011;1925;51.356;9.530;2023-04-19T06:26:04;3.50;;;2.90;;
3819;SDS011;1925;51.356;9.530;2023-04-19T06:28:30;5.07;;;2.70;;
3819;SDS011;1925;51.356;9.530;2023-04-19T06:30:56;3.40;;;2.37;;
3819;SDS011;1925;51.356;9.530;2023-04-19T06:33:22;3.67;;;3.13;;
3819;SDS011;1925;51.356;9.530;2023-04-19T06:35:48;3.60;;;2.78;;
3819;SDS011;1925;51.356;9.530;2023-04-19T06:38:14;4.50;;;3.40;;
3819;SDS011;1925;51.356;9.530;2023-04-19T06:40:40;3.70;;;3.10;;
3819;SDS011;1925;51.356;9.530;2023-04-19T06:43:06;2.70;;;2.43;;
3819;SDS011;1925;51.356;9.530;2023-04-19T06:45:32;3.43;;;2.67;;
3819;SDS011;1925;51.356;9.530;2023-04-19T06:47:58;3.03;;;2.63;;
3819;SDS011;1925;51.356;9.530;2023-04-19T06:50:24;3.30;;;2.45;;
3819;SDS011;1925;51.356;9.530;2023-04-19T06:52:51;5.13;;;2.83;;
3819;SDS011;1925;51.356;9.530;2023-04-19T06:55:16;5.07;;;3.13;;
3819;SDS011;1925;51.356;9.530;2023-04-19T06:57:42;2.40;;;2.20;;
3819;SDS011;1925;51.356;9.530;2023-04-19T07:00:09;4.80;;;3.03;;
3819;SDS011;1925;51.356;9.530;2023-04-19T07:02:35;5.22;;;2.55;;
3819;SDS011;1925;51.356;9.530;2023-04-19T07:05:01;4.17;;;2.60;;
3819;SDS011;1925;51.356;9.530;2023-04-19T07:07:27;2.65;;;2.28;;
3819;SDS011;1925;51.356;9.530;2023-04-19T07:09:53;3.40;;;2.17;;
3819;SDS011;1925;51.356;9.530;2023-04-19T07:12:19;3.40;;;2.27;;
3819;SDS011;1925;51.356;9.530;2023-04-19T07:14:45;4.37;;;2.20;;
3819;SDS011;1925;51.356;9.530;2023-04-19T07:17:11;5.07;;;3.30;;
3819;SDS011;1925;51.356;9.530;2023-04-19T07:19:38;6.10;;;3.10;;
3819;SDS011;1925;51.356;9.530;2023-04-19T07:22:04;6.40;;;3.10;;
3819;SDS011;1925;51.356;9.530;2023-04-19T07:24:30;3.08;;;2.55;;
3819;SDS011;1925;51.356;9.530;2023-04-19T07:26:56;2.58;;;2.05;;
3819;SDS011;1925;51.356;9.530;2023-04-19T07:29:22;7.60;;;2.87;;
3819;SDS011;1925;51.356;9.530;2023-04-19T07:31:48;4.07;;;2.43;;
3819;SDS011;1925;51.356;9.530;2023-04-19T07:34:14;4.83;;;2.70;;
3819;SDS011;1925;51.356;9.530;2023-04-19T07:36:39;4.43;;;2.77;;
3819;SDS011;1925;51.356;9.530;2023-04-19T07:39:05;2.57;;;2.30;;
3819;SDS011;1925;51.356;9.530;2023-04-19T07:41:32;5.18;;;2.95;;
3819;SDS011;1925;51.356;9.530;2023-04-19T07:43:58;6.03;;;2.30;;
3819;SDS011;1925;51.356;9.530;2023-04-19T07:46:24;2.50;;;2.30;;
3819;SDS011;1925;51.356;9.530;2023-04-19T07:48:50;3.50;;;2.50;;
3819;SDS011;1925;51.356;9.530;2023-04-19T07:51:16;3.30;;;2.70;;
3819;SDS011;1925;51.356;9.530;2023-04-19T07:53:43;3.40;;;2.50;;
3819;SDS011;1925;51.356;9.530;2023-04-19T07:56:10;5.00;;;2.90;;
3819;SDS011;1925;51.356;9.530;2023-04-19T07:58:36;3.43;;;2.40;;
3819;SDS011;1925;51.356;9.530;2023-04-19T08:01:03;4.70;;;2.50;;
3819;SDS011;1925;51.356;9.530;2023-04-19T08:03:30;2.67;;;2.08;;
3819;SDS011;1925;51.356;9.530;2023-04-19T08:05:56;3.58;;;2.15;;
3819;SDS011;1925;51.356;9.530;2023-04-19T08:08:22;6.45;;;2.88;;
3819;SDS011;1925;51.356;9.530;2023-04-19T08:10:49;2.60;;;2.38;;
3819;SDS011;1925;51.356;9.530;2023-04-19T08:13:18;3.90;;;1.80;;
3819;SDS011;1925;51.356;9.530;2023-04-19T08:15:44;2.77;;;2.27;;
3819;SDS011;1925;51.356;9.530;2023-04-19T08:18:10;3.97;;;2.63;;
3819;SDS011;1925;51.356;9.530;2023-04-19T08:20:36;3.07;;;2.20;;
3819;SDS011;1925;51.356;9.530;2023-04-19T08:23:02;3.00;;;2.70;;
3819;SDS011;1925;51.356;9.530;2023-04-19T08:25:30;4.25;;;2.45;;
3819;SDS011;1925;51.356;9.530;2023-04-19T08:27:56;3.63;;;2.65;;
3819;SDS011;1925;51.356;9.530;2023-04-19T08:30:22;4.70;;;2.33;;
3819;SDS011;1925;51.356;9.530;2023-04-19T08:32:48;3.40;;;2.35;;
3819;SDS011;1925;51.356;9.530;2023-04-19T08:35:15;2.80;;;2.10;;
3819;SDS011;1925;51.356;9.530;2023-04-19T08:37:41;4.50;;;2.28;;
3819;SDS011;1925;51.356;9.530;2023-04-19T08:40:07;2.53;;;2.33;;
3819;SDS011;1925;51.356;9.530;2023-04-19T08:42:34;3.80;;;2.60;;
3819;SDS011;1925;51.356;9.530;2023-04-19T08:45:00;2.90;;;2.27;;
3819;SDS011;1925;51.356;9.530;2023-04-19T08:47:30;2.75;;;2.50;;
3819;SDS011;1925;51.356;9.530;2023-04-19T08:49:56;3.17;;;2.28;;
3819;SDS011;1925;51.356;9.530;2023-04-19T08:52:24;3.72;;;2.20;;
3819;SDS011;1925;51.356;9.530;2023-04-19T08:54:52;2.83;;;2.08;;
3819;SDS011;1925;51.356;9.530;2023-04-19T08:57:18;3.10;;;1.83;;
3819;SDS011;1925;51.356;9.530;2023-04-19T08:59:44;3.33;;;2.50;;
3819;SDS011;1925;51.356;9.530;2023-04-19T09:02:14;3.38;;;2.25;;
3819;SDS011;1925;51.356;9.530;2023-04-19T09:04:41;2.72;;;2.30;;
3819;SDS011;1925;51.356;9.530;2023-04-19T09:07:07;3.50;;;2.13;;
3819;SDS011;1925;51.356;9.530;2023-04-19T09:09:33;4.72;;;2.25;;
3819;SDS011;1925;51.356;9.530;2023-04-19T09:12:00;2.20;;;1.80;;
3819;SDS011;1925;51.356;9.530;2023-04-19T09:14:27;2.15;;;1.80;;
3819;SDS011;1925;51.356;9.530;2023-04-19T09:16:53;6.82;;;1.80;;
3819;SDS011;1925;51.356;9.530;2023-04-19T09:19:19;2.85;;;2.00;;
3819;SDS011;1925;51.356;9.530;2023-04-19T09:21:45;2.40;;;1.70;;
3819;SDS011;1925;51.356;9.530;2023-04-19T09:24:11;3.35;;;1.92;;
3819;SDS011;1925;51.356;9.530;2023-04-19T09:26:37;2.07;;;1.60;;
3819;SDS011;1925;51.356;9.530;2023-04-19T09:29:04;2.20;;;1.60;;
3819;SDS011;1925;51.356;9.530;2023-04-19T09:31:33;3.00;;;1.92;;
3819;SDS011;1925;51.356;9.530;2023-04-19T09:34:12;3.13;;;2.03;;
3819;SDS011;1925;51.356;9.530;2023-04-19T09:36:39;6.05;;;2.33;;
3819;SDS011;1925;51.356;9.530;2023-04-19T09:39:05;3.13;;;2.35;;
3819;SDS011;1925;51.356;9.530;2023-04-19T09:41:31;2.33;;;2.13;;
3819;SDS011;1925;51.356;9.530;2023-04-19T09:44:10;2.72;;;2.20;;
3819;SDS011;1925;51.356;9.530;2023-04-19T09:46:37;2.80;;;2.15;;
3819;SDS011;1925;51.356;9.530;2023-04-19T09:51:47;3.17;;;2.20;;
3819;SDS011;1925;51.356;9.530;2023-04-19T09:54:14;2.75;;;1.77;;
3819;SDS011;1925;51.356;9.530;2023-04-19T09:56:40;3.35;;;1.85;;
3819;SDS011;1925;51.356;9.530;2023-04-19T09:59:07;1.93;;;1.73;;
3819;SDS011;1925;51.356;9.530;2023-04-19T10:01:34;3.78;;;1.88;;
3819;SDS011;1925;51.356;9.530;2023-04-19T10:04:02;2.28;;;2.08;;
3819;SDS011;1925;51.356;9.530;2023-04-19T10:06:30;7.10;;;2.07;;
3819;SDS011;1925;51.356;9.530;2023-04-19T10:08:56;3.40;;;1.80;;
3819;SDS011;1925;51.356;9.530;2023-04-19T10:11:23;2.92;;;2.40;;
3819;SDS011;1925;51.356;9.530;2023-04-19T10:13:52;2.17;;;2.07;;
3819;SDS011;1925;51.356;9.530;2023-04-19T10:16:20;2.50;;;1.77;;
3819;SDS011;1925;51.356;9.530;2023-04-19T10:18:47;3.63;;;1.97;;
3819;SDS011;1925;51.356;9.530;2023-04-19T10:21:13;1.70;;;1.15;;
3819;SDS011;1925;51.356;9.530;2023-04-19T10:23:40;5.30;;;2.60;;
3819;SDS011;1925;51.356;9.530;2023-04-19T10:26:06;2.65;;;2.45;;
3819;SDS011;1925;51.356;9.530;2023-04-19T10:28:32;4.90;;;2.03;;
3819;SDS011;1925;51.356;9.530;2023-04-19T10:31:01;2.83;;;2.20;;
3819;SDS011;1925;51.356;9.530;2023-04-19T10:33:28;2.43;;;2.23;;
3819;SDS011;1925;51.356;9.530;2023-04-19T10:35:56;8.50;;;3.90;;
3819;SDS011;1925;51.356;9.530;2023-04-19T10:38:38;4.83;;;2.13;;
3819;SDS011;1925;51.356;9.530;2023-04-19T10:41:06;4.87;;;1.93;;
3819;SDS011;1925;51.356;9.530;2023-04-19T10:49:01;3.03;;;1.60;;
3819;SDS011;1925;51.356;9.530;2023-04-19T10:53:56;2.00;;;1.70;;
3819;SDS011;1925;51.356;9.530;2023-04-19T10:56:55;2.17;;;1.80;;
3819;SDS011;1925;51.356;9.530;2023-04-19T10:59:13;5.33;;;2.23;;
3819;SDS011;1925;51.356;9.530;2023-04-19T11:04:15;3.80;;;2.47;;
3819;SDS011;1925;51.356;9.530;2023-04-19T11:12:13;2.70;;;2.50;;
3819;SDS011;1925;51.356;9.530;2023-04-19T11:17:16;2.73;;;2.30;;
3819;SDS011;1925;51.356;9.530;2023-04-19T11:20:03;9.80;;;3.50;;
3819;SDS011;1925;51.356;9.530;2023-04-19T11:22:31;3.40;;;2.27;;
3819;SDS011;1925;51.356;9.530;2023-04-19T11:27:33;3.17;;;2.87;;
3819;SDS011;1925;51.356;9.530;2023-04-19T11:30:03;2.80;;;2.20;;
3819;SDS011;1925;51.356;9.530;2023-04-19T11:32:30;4.20;;;3.37;;
3819;SDS011;1925;51.356;9.530;2023-04-19T11:34:56;4.00;;;2.50;;
3819;SDS011;1925;51.356;9.530;2023-04-19T11:37:22;5.10;;;2.80;;
3819;SDS011;1925;51.356;9.530;2023-04-19T11:39:48;3.17;;;2.50;;
3819;SDS011;1925;51.356;9.530;2023-04-19T11:42:17;3.03;;;2.73;;
3819;SDS011;1925;51.356;9.530;2023-04-19T11:44:47;3.43;;;2.77;;
3819;SDS011;1925;51.356;9.530;2023-04-19T11:47:14;4.40;;;3.33;;
3819;SDS011;1925;51.356;9.530;2023-04-19T11:49:40;3.70;;;2.83;;
3819;SDS011;1925;51.356;9.530;2023-04-19T11:52:06;3.93;;;2.57;;
3819;SDS011;1925;51.356;9.530;2023-04-19T11:54:32;2.80;;;2.50;;
3819;SDS011;1925;51.356;9.530;2023-04-19T11:57:04;3.50;;;2.40;;
3819;SDS011;1925;51.356;9.530;2023-04-19T11:59:32;3.07;;;2.13;;
3819;SDS011;1925;51.356;9.530;2023-04-19T12:02:11;3.37;;;2.60;;
3819;SDS011;1925;51.356;9.530;2023-04-19T12:04:37;2.87;;;2.40;;
3819;SDS011;1925;51.356;9.530;2023-04-19T12:07:04;11.43;;;2.67;;
3819;SDS011;1925;51.356;9.530;2023-04-19T12:09:34;2.10;;;1.87;;
3819;SDS011;1925;51.356;9.530;2023-04-19T12:12:00;4.30;;;2.43;;
3819;SDS011;1925;51.356;9.530;2023-04-19T12:14:27;2.47;;;2.07;;
3819;SDS011;1925;51.356;9.530;2023-04-19T12:17:03;3.03;;;2.73;;
3819;SDS011;1925;51.356;9.530;2023-04-19T12:19:33;3.20;;;2.30;;
3819;SDS011;1925;51.356;9.530;2023-04-19T12:22:06;5.20;;;2.70;;
3819;SDS011;1925;51.356;9.530;2023-04-19T12:24:32;3.10;;;2.33;;
3819;SDS011;1925;51.356;9.530;2023-04-19T12:26:58;4.40;;;1.87;;
3819;SDS011;1925;51.356;9.530;2023-04-19T12:29:25;2.90;;;1.97;;
3819;SDS011;1925;51.356;9.530;2023-04-19T12:31:51;3.70;;;2.17;;
3819;SDS011;1925;51.356;9.530;2023-04-19T12:34:17;1.63;;;1.53;;
3819;SDS011;1925;51.356;9.530;2023-04-19T12:36:43;2.77;;;1.70;;
3819;SDS011;1925;51.356;9.530;2023-04-19T12:39:09;2.53;;;2.10;;
3819;SDS011;1925;51.356;9.530;2023-04-19T12:41:34;3.30;;;2.00;;
3819;SDS011;1925;51.356;9.530;2023-04-19T12:44:00;1.50;;;1.40;;
3819;SDS011;1925;51.356;9.530;2023-04-19T12:46:26;3.00;;;2.10;;
3819;SDS011;1925;51.356;9.530;2023-04-19T12:48:52;6.53;;;2.47;;
3819;SDS011;1925;51.356;9.530;2023-04-19T12:51:18;8.80;;;2.07;;
3819;SDS011;1925;51.356;9.530;2023-04-19T12:53:48;9.23;;;2.20;;
3819;SDS011;1925;51.356;9.530;2023-04-19T12:56:14;4.50;;;1.90;;
3819;SDS011;1925;51.356;9.530;2023-04-19T12:58:41;1.67;;;1.57;;
3819;SDS011;1925;51.356;9.530;2023-04-19T13:01:07;2.40;;;1.63;;
3819;SDS011;1925;51.356;9.530;2023-04-19T13:03:33;5.40;;;1.63;;
3819;SDS011;1925;51.356;9.530;2023-04-19T13:06:03;2.70;;;1.93;;
3819;SDS011;1925;51.356;9.530;2023-04-19T13:08:29;1.97;;;1.77;;
3819;SDS011;1925;51.356;9.530;2023-04-19T13:10:55;3.53;;;2.00;;
3819;SDS011;1925;51.356;9.530;2023-04-19T13:13:23;4.20;;;2.27;;
3819;SDS011;1925;51.356;9.530;2023-04-19T13:15:50;2.47;;;2.27;;
3819;SDS011;1925;51.356;9.530;2023-04-19T13:18:16;3.10;;;2.37;;
3819;SDS011;1925;51.356;9.530;2023-04-19T13:20:42;10.10;;;3.60;;
3819;SDS011;1925;51.356;9.530;2023-04-19T13:23:08;5.70;;;2.83;;
3819;SDS011;1925;51.356;9.530;2023-04-19T13:25:34;2.57;;;2.10;;
3819;SDS011;1925;51.356;9.530;2023-04-19T13:28:00;4.63;;;2.47;;
3819;SDS011;1925;51.356;9.530;2023-04-19T13:30:26;2.57;;;2.20;;
3819;SDS011;1925;51.356;9.530;2023-04-19T13:32:52;3.67;;;2.43;;
3819;SDS011;1925;51.356;9.530;2023-04-19T13:35:18;2.30;;;2.00;;
3819;SDS011;1925;51.356;9.530;2023-04-19T13:37:44;3.70;;;2.17;;
3819;SDS011;1925;51.356;9.530;2023-04-19T13:40:11;5.20;;;2.20;;
3819;SDS011;1925;51.356;9.530;2023-04-19T13:42:38;4.97;;;2.40;;
3819;SDS011;1925;51.356;9.530;2023-04-19T13:45:04;3.50;;;2.10;;
3819;SDS011;1925;51.356;9.530;2023-04-19T13:47:30;2.60;;;2.20;;
3819;SDS011;1925;51.356;9.530;2023-04-19T13:49:56;6.73;;;2.40;;
3819;SDS011;1925;51.356;9.530;2023-04-19T13:52:22;3.50;;;2.20;;
3819;SDS011;1925;51.356;9.530;2023-04-19T13:54:48;3.43;;;2.40;;
3819;SDS011;1925;51.356;9.530;2023-04-19T13:57:14;2.40;;;2.13;;
3819;SDS011;1925;51.356;9.530;2023-04-19T13:59:40;6.50;;;2.13;;
3819;SDS011;1925;51.356;9.530;2023-04-19T14:02:06;8.63;;;2.60;;
3819;SDS011;1925;51.356;9.530;2023-04-19T14:04:32;2.53;;;2.20;;
3819;SDS011;1925;51.356;9.530;2023-04-19T14:06:58;3.30;;;2.17;;
3819;SDS011;1925;51.356;9.530;2023-04-19T14:09:24;4.77;;;3.20;;
3819;SDS011;1925;51.356;9.530;2023-04-19T14:11:50;5.20;;;2.70;;
3819;SDS011;1925;51.356;9.530;2023-04-19T14:14:16;4.80;;;2.90;;
3819;SDS011;1925;51.356;9.530;2023-04-19T14:16:42;15.37;;;7.40;;
3819;SDS011;1925;51.356;9.530;2023-04-19T14:19:08;6.93;;;3.57;;
3819;SDS011;1925;51.356;9.530;2023-04-19T14:21:34;2.30;;;2.07;;
3819;SDS011;1925;51.356;9.530;2023-04-19T14:24:00;3.27;;;1.77;;
3819;SDS011;1925;51.356;9.530;2023-04-19T14:26:26;4.87;;;1.83;;
3819;SDS011;1925;51.356;9.530;2023-04-19T14:28:52;2.80;;;1.90;;
3819;SDS011;1925;51.356;9.530;2023-04-19T14:31:18;2.60;;;1.80;;
3819;SDS011;1925;51.356;9.530;2023-04-19T14:33:44;2.57;;;1.87;;
3819;SDS011;1925;51.356;9.530;2023-04-19T14:36:10;6.60;;;1.80;;
3819;SDS011;1925;51.356;9.530;2023-04-19T14:38:36;2.43;;;1.77;;
3819;SDS011;1925;51.356;9.530;2023-04-19T14:41:02;4.70;;;1.93;;
3819;SDS011;1925;51.356;9.530;2023-04-19T14:43:28;3.93;;;2.30;;
3819;SDS011;1925;51.356;9.530;2023-04-19T14:45:54;1.73;;;1.63;;
3819;SDS011;1925;51.356;9.530;2023-04-19T14:48:20;3.57;;;1.80;;
3819;SDS011;1925;51.356;9.530;2023-04-19T14:50:47;2.67;;;2.00;;
3819;SDS011;1925;51.356;9.530;2023-04-19T14:53:13;7.83;;;1.90;;
3819;SDS011;1925;51.356;9.530;2023-04-19T14:55:39;4.90;;;2.27;;
3819;SDS011;1925;51.356;9.530;2023-04-19T14:58:05;2.83;;;2.30;;
3819;SDS011;1925;51.356;9.530;2023-04-19T15:00:31;3.93;;;2.10;;
3819;SDS011;1925;51.356;9.530;2023-04-19T15:02:58;4.30;;;1.80;;
3819;SDS011;1925;51.356;9.530;2023-04-19T15:05:25;5.00;;;2.10;;
3819;SDS011;1925;51.356;9.530;2023-04-19T15:07:51;3.73;;;2.00;;
3819;SDS011;1925;51.356;9.530;2023-04-19T15:10:17;2.43;;;2.00;;
3819;SDS011;1925;51.356;9.530;2023-04-19T15:12:43;3.10;;;2.23;;
3819;SDS011;1925;51.356;9.530;2023-04-19T15:15:09;4.87;;;1.77;;
3819;SDS011;1925;51.356;9.530;2023-04-19T15:17:35;3.00;;;2.17;;
3819;SDS011;1925;51.356;9.530;2023-04-19T15:20:01;2.33;;;1.80;;
3819;SDS011;1925;51.356;9.530;2023-04-19T15:22:29;3.30;;;2.57;;
3819;SDS011;1925;51.356;9.530;2023-04-19T15:24:55;1.67;;;1.57;;
3819;SDS011;1925;51.356;9.530;2023-04-19T15:27:21;3.80;;;1.90;;
3819;SDS011;1925;51.356;9.530;2023-04-19T15:29:47;1.57;;;1.47;;
3819;SDS011;1925;51.356;9.530;2023-04-19T15:32:13;3.70;;;2.47;;
3819;SDS011;1925;51.356;9.530;2023-04-19T15:34:39;1.90;;;1.60;;